Details From SCRM - TENIENTE RODOLFO MARSH MARTIN
To SAWH - Ushuaia_Intl_Islas Malvinas
Flight Number -
Tags generated
Created
Modified
Stats Distance 530 nm / 982 km
Max Altitude 34,000 ft / 10,363 m
Waypoints 5
Social Downloads 3
Likes 0
Share

Download

Looking for another format? Having issues loading an existing format? Contact us
Advertisement - Login to hide

Notes

Basic altitude profile: - Ascent Rate: 2500ft/min - Ascent Speed: 250kts - Cruise Altitude: 35000ft - Cruise Speed: 420kts - Descent Rate: 1500ft/min - Descent Speed: 250kts Options: - Use NATs: yes - Use PACOTS: yes - Use low airways: yes - Use high airways: yes

Route

SCRM KRILL UW100 HORNO SAWH

ID Type Via Altitude (ft/m) Position (lat/lon) Dist (leg/tot) Name
O SCRM APT - 0 / 0 -62.19091 / -58.98722 - / 0 nm TENIENTE RODOLFO MARSH MARTIN
KRILL FIX - 26,200 / 7,986 -61.20611 / -60.68639 76 / 76 nm
DRAKE FIX UW100 (AWY-HI) 34,000 / 10,363 -59.30816 / -63.59561 143 / 219 nm
HORNO FIX UW100 (AWY-HI) 24,500 / 7,468 -56.47704 / -67.26751 206 / 426 nm
O SAWH APT - 0 / 0 -54.84331 / -68.29490 104 / 530 nm Ushuaia_Intl_Islas Malvinas

Altitude Profile

Advertisement - Login to hide

Weather


0- 5 10 15 20 25 30 35+ Temperature / °C

Clouds and Precipitation
Forecast for 2022-05-19 18:00 UTC. Updated 5 hours ago

Ground ~20,000 ft ~40,000 ft Winds

SCRM

Details ICAO SCRM (TNM)
Name Teniente R. Marsh
Region Chile
Timezone Unknown
Stats Elevation 147 ft / 45 m (AMSL)
Location -62.190900° -58.986600°
Runways 1
Magnetic Variation 10.618° E

METAR

SCRM 192100Z 33011KT 1200 BR SCT006 BKN033 M01/M01 Q1007 NOSIG

Decode

TAF

Not found

Departure Runways

ID Width Length Bearing (true/mag) Surface Threshold Overrun Markings Lighting
11 128 ft / 39 m 4,243 ft / 1,293 m 117.16° / 106.54° DIRT 0 ft / 0 m 0 ft / 0 m VISUAL EDGE THRESHOLD REIL-OMNI
29 128 ft / 39 m 4,243 ft / 1,293 m 297.14° / 286.52° DIRT 0 ft / 0 m 0 ft / 0 m VISUAL EDGE THRESHOLD REIL-OMNI

SAWH

Details ICAO SAWH (USH)
Name Ushuaia Intl
Region Argentina
Timezone America/Argentina/Ushuaia (UTC-3.0)
Stats Elevation 102 ft / 31 m (AMSL)
Location -54.843300° -68.294800°
Runways 1
Magnetic Variation 12.090° E

METAR

SAWH 192100Z 36011KT 9999 FEW040 12/05 Q1007

Decode

TAF

TAF SAWH 191700Z 1918/2018 VRB03KT 9999 SCT030 TX10/1919Z TN02/2010Z SCT025

Decode

Destination Runways

ID Width Length Bearing (true/mag) Surface Threshold Overrun Markings Lighting
07 148 ft / 45 m 9,534 ft / 2,906 m 86.15° / 74.06° CONCRETE 591 ft / 180 m 295 ft / 90 m APP EDGE THRESHOLD REIL-OMNI
25 148 ft / 45 m 9,534 ft / 2,906 m 266.11° / 254.02° CONCRETE 899 ft / 274 m 95 ft / 29 m PREC-APP EDGE THRESHOLD REIL-OMNI

Approach Navaids

Runway Type Ident Frequency Range Bearing (true/mag) Slope Elevation
25 DME US 111.30 MHz 18 nm / 33 km - - 92 ft / 28 m (AMSL)
25 LOC-ILS US 111.30 MHz 18 nm / 33 km 266.19° / 254.09 ° - 54 ft / 16 m (AMSL)
25 GS US 111.30 MHz 10 nm / 19 km 266.19° / 254.10 ° 3.50° 91 ft / 28 m (AMSL)

Popular Alternatives